sensor_id;sensor_type;location;lat;lon;timestamp;pressure;altitude;pressure_sealevel;temperature;humidity
34185;BME280;20454;48.100;11.776;2023-04-08T00:00:15;95472.19;;;3.72;99.90
34185;BME280;20454;48.100;11.776;2023-04-08T00:02:41;95470.78;;;3.80;100.00
34185;BME280;20454;48.100;11.776;2023-04-08T00:05:07;95455.38;;;3.79;100.00
34185;BME280;20454;48.100;11.776;2023-04-08T00:07:33;95472.41;;;3.86;100.00
34185;BME280;20454;48.100;11.776;2023-04-08T00:09:59;95479.00;;;3.90;100.00
34185;BME280;20454;48.100;11.776;2023-04-08T00:12:25;95478.75;;;3.91;100.00
34185;BME280;20454;48.100;11.776;2023-04-08T00:14:50;95473.50;;;3.95;100.00
34185;BME280;20454;48.100;11.776;2023-04-08T00:17:16;95486.09;;;4.01;100.00
34185;BME280;20454;48.100;11.776;2023-04-08T00:19:42;95481.72;;;4.00;100.00
34185;BME280;20454;48.100;11.776;2023-04-08T00:22:09;95484.19;;;4.01;100.00
34185;BME280;20454;48.100;11.776;2023-04-08T00:24:34;95488.84;;;4.01;100.00
34185;BME280;20454;48.100;11.776;2023-04-08T00:27:00;95483.09;;;4.02;100.00
34185;BME280;20454;48.100;11.776;2023-04-08T00:29:27;95491.34;;;4.02;100.00
34185;BME280;20454;48.100;11.776;2023-04-08T00:31:53;95482.56;;;3.95;100.00
34185;BME280;20454;48.100;11.776;2023-04-08T00:34:19;95483.66;;;3.94;100.00
34185;BME280;20454;48.100;11.776;2023-04-08T00:36:44;95485.59;;;3.94;100.00
34185;BME280;20454;48.100;11.776;2023-04-08T00:39:12;95486.69;;;3.93;100.00
34185;BME280;20454;48.100;11.776;2023-04-08T00:41:38;95485.31;;;3.90;100.00
34185;BME280;20454;48.100;11.776;2023-04-08T00:44:04;95488.13;;;3.85;100.00
34185;BME280;20454;48.100;11.776;2023-04-08T00:46:33;95495.00;;;3.88;100.00
34185;BME280;20454;48.100;11.776;2023-04-08T00:49:00;95484.25;;;3.86;100.00
34185;BME280;20454;48.100;11.776;2023-04-08T00:51:28;95488.38;;;3.84;100.00
34185;BME280;20454;48.100;11.776;2023-04-08T00:53:54;95489.22;;;3.84;100.00
34185;BME280;20454;48.100;11.776;2023-04-08T00:56:20;95489.22;;;3.84;100.00
34185;BME280;20454;48.100;11.776;2023-04-08T00:58:46;95488.13;;;3.85;100.00
34185;BME280;20454;48.100;11.776;2023-04-08T01:04:20;95493.03;;;3.88;100.00
34185;BME280;20454;48.100;11.776;2023-04-08T01:06:50;95489.75;;;3.86;100.00
34185;BME280;20454;48.100;11.776;2023-04-08T01:09:22;95482.34;;;3.82;100.00
34185;BME280;20454;48.100;11.776;2023-04-08T01:11:49;95481.78;;;3.80;100.00
34185;BME280;20454;48.100;11.776;2023-04-08T01:14:20;95484.25;;;3.81;100.00
34185;BME280;20454;48.100;11.776;2023-04-08T01:16:48;95485.91;;;3.82;100.00
34185;BME280;20454;48.100;11.776;2023-04-08T01:19:21;95483.41;;;3.86;100.00
34185;BME280;20454;48.100;11.776;2023-04-08T01:21:51;95489.50;;;3.83;100.00
34185;BME280;20454;48.100;11.776;2023-04-08T01:24:25;95486.16;;;3.86;100.00
34185;BME280;20454;48.100;11.776;2023-04-08T01:26:53;95477.66;;;3.82;100.00
34185;BME280;20454;48.100;11.776;2023-04-08T01:29:21;95490.56;;;3.87;100.00
34185;BME280;20454;48.100;11.776;2023-04-08T01:31:47;95485.63;;;3.84;100.00
34185;BME280;20454;48.100;11.776;2023-04-08T01:34:13;95481.25;;;3.83;100.00
34185;BME280;20454;48.100;11.776;2023-04-08T01:36:40;95486.47;;;3.84;100.00
34185;BME280;20454;48.100;11.776;2023-04-08T01:39:08;95478.22;;;3.84;100.00
34185;BME280;20454;48.100;11.776;2023-04-08T01:41:35;95480.66;;;3.86;100.00
34185;BME280;20454;48.100;11.776;2023-04-08T01:44:02;95483.72;;;3.84;100.00
34185;BME280;20454;48.100;11.776;2023-04-08T01:46:28;95485.63;;;3.84;100.00
34185;BME280;20454;48.100;11.776;2023-04-08T01:48:55;95492.78;;;3.85;100.00
34185;BME280;20454;48.100;11.776;2023-04-08T01:51:21;95493.06;;;3.83;100.00
34185;BME280;20454;48.100;11.776;2023-04-08T01:53:47;95493.06;;;3.83;100.00
34185;BME280;20454;48.100;11.776;2023-04-08T01:56:13;95491.72;;;3.81;100.00
34185;BME280;20454;48.100;11.776;2023-04-08T01:58:41;95486.22;;;3.81;100.00
34185;BME280;20454;48.100;11.776;2023-04-08T06:02:23;95550.69;;;5.82;100.00
34185;BME280;20454;48.100;11.776;2023-04-08T06:04:49;95559.59;;;6.02;100.00
34185;BME280;20454;48.100;11.776;2023-04-08T06:07:15;95567.28;;;6.05;100.00
34185;BME280;20454;48.100;11.776;2023-04-08T06:09:40;95572.47;;;6.12;100.00
34185;BME280;20454;48.100;11.776;2023-04-08T06:12:06;95562.75;;;6.14;100.00
34185;BME280;20454;48.100;11.776;2023-04-08T06:14:31;95574.00;;;6.23;100.00
34185;BME280;20454;48.100;11.776;2023-04-08T06:16:57;95571.47;;;6.26;100.00
34185;BME280;20454;48.100;11.776;2023-04-08T06:19:23;95571.94;;;6.33;100.00
34185;BME280;20454;48.100;11.776;2023-04-08T06:21:49;95566.38;;;6.38;100.00
34185;BME280;20454;48.100;11.776;2023-04-08T06:24:16;95573.78;;;6.43;100.00
34185;BME280;20454;48.100;11.776;2023-04-08T06:26:41;95579.16;;;6.53;100.00
34185;BME280;20454;48.100;11.776;2023-04-08T06:29:07;95577.75;;;6.55;100.00
34185;BME280;20454;48.100;11.776;2023-04-08T06:31:33;95587.63;;;6.61;100.00
34185;BME280;20454;48.100;11.776;2023-04-08T06:33:59;95583.75;;;6.62;100.00
34185;BME280;20454;48.100;11.776;2023-04-08T06:36:25;95581.28;;;6.61;100.00
34185;BME280;20454;48.100;11.776;2023-04-08T06:38:50;95582.63;;;6.63;100.00
34185;BME280;20454;48.100;11.776;2023-04-08T06:41:16;95586.81;;;6.61;100.00
34185;BME280;20454;48.100;11.776;2023-04-08T06:43:42;95590.41;;;6.61;100.00
34185;BME280;20454;48.100;11.776;2023-04-08T06:46:07;95596.44;;;6.63;100.00
34185;BME280;20454;48.100;11.776;2023-04-08T06:48:33;95597.50;;;6.67;100.00
34185;BME280;20454;48.100;11.776;2023-04-08T06:50:59;95601.56;;;6.75;100.00
34185;BME280;20454;48.100;11.776;2023-04-08T06:53:26;95598.94;;;6.83;100.00
34185;BME280;20454;48.100;11.776;2023-04-08T06:55:54;95598.00;;;6.93;100.00
34185;BME280;20454;48.100;11.776;2023-04-08T06:58:19;95601.75;;;7.02;100.00
34185;BME280;20454;48.100;11.776;2023-04-08T09:59:11;95675.88;;;7.42;81.00
34185;BME280;20454;48.100;11.776;2023-04-08T10:01:39;95677.97;;;7.50;81.39
34185;BME280;20454;48.100;11.776;2023-04-08T10:04:14;95680.00;;;7.63;79.56
34185;BME280;20454;48.100;11.776;2023-04-08T10:06:41;95686.66;;;7.80;78.03
34185;BME280;20454;48.100;11.776;2023-04-08T10:09:07;95686.28;;;7.87;75.26
34185;BME280;20454;48.100;11.776;2023-04-08T10:11:33;95674.09;;;7.88;76.76
34185;BME280;20454;48.100;11.776;2023-04-08T10:13:59;95678.19;;;7.90;77.56
34185;BME280;20454;48.100;11.776;2023-04-08T10:16:25;95681.44;;;8.11;77.84
34185;BME280;20454;48.100;11.776;2023-04-08T10:18:52;95678.59;;;8.34;75.57
34185;BME280;20454;48.100;11.776;2023-04-08T10:21:39;95684.28;;;8.56;72.66
34185;BME280;20454;48.100;11.776;2023-04-08T10:24:12;95673.22;;;8.83;71.11
34185;BME280;20454;48.100;11.776;2023-04-08T10:26:42;95679.81;;;9.01;70.80
34185;BME280;20454;48.100;11.776;2023-04-08T10:31:44;95686.69;;;9.30;69.10
34185;BME280;20454;48.100;11.776;2023-04-08T10:34:20;95668.00;;;9.22;67.32
34185;BME280;20454;48.100;11.776;2023-04-08T10:36:51;95677.66;;;9.11;71.14
34185;BME280;20454;48.100;11.776;2023-04-08T10:39:17;95668.91;;;9.04;72.42
34185;BME280;20454;48.100;11.776;2023-04-08T10:41:44;95662.88;;;9.02;70.51
34185;BME280;20454;48.100;11.776;2023-04-08T10:44:21;95667.88;;;8.87;72.54
34185;BME280;20454;48.100;11.776;2023-04-08T10:46:48;95663.56;;;8.67;70.57
34185;BME280;20454;48.100;11.776;2023-04-08T10:49:14;95662.81;;;8.48;70.72
34185;BME280;20454;48.100;11.776;2023-04-08T10:51:42;95670.19;;;8.39;70.89
34185;BME280;20454;48.100;11.776;2023-04-08T10:54:12;95667.22;;;8.17;74.47
34185;BME280;20454;48.100;11.776;2023-04-08T10:56:48;95673.59;;;7.99;75.28
34185;BME280;20454;48.100;11.776;2023-04-08T10:59:27;95668.16;;;7.94;77.16
34185;BME280;20454;48.100;11.776;2023-04-08T11:01:53;95674.31;;;7.91;76.90
34185;BME280;20454;48.100;11.776;2023-04-08T11:04:19;95669.16;;;7.85;77.09
34185;BME280;20454;48.100;11.776;2023-04-08T11:06:48;95670.34;;;7.79;77.47
34185;BME280;20454;48.100;11.776;2023-04-08T11:09:14;95675.44;;;7.72;79.01
34185;BME280;20454;48.100;11.776;2023-04-08T11:11:44;95671.91;;;7.66;81.02
34185;BME280;20454;48.100;11.776;2023-04-08T11:14:11;95682.03;;;7.57;81.95
34185;BME280;20454;48.100;11.776;2023-04-08T11:16:37;95685.19;;;7.51;83.29
34185;BME280;20454;48.100;11.776;2023-04-08T11:19:04;95683.88;;;7.43;84.72
34185;BME280;20454;48.100;11.776;2023-04-08T11:21:31;95684.50;;;7.40;84.27
34185;BME280;20454;48.100;11.776;2023-04-08T11:23:57;95685.47;;;7.31;85.22
34185;BME280;20454;48.100;11.776;2023-04-08T11:26:23;95691.66;;;7.23;86.17
34185;BME280;20454;48.100;11.776;2023-04-08T11:28:50;95696.19;;;7.14;87.57
34185;BME280;20454;48.100;11.776;2023-04-08T11:31:16;95686.28;;;7.08;87.84
34185;BME280;20454;48.100;11.776;2023-04-08T11:33:46;95689.06;;;7.08;88.02
34185;BME280;20454;48.100;11.776;2023-04-08T11:36:16;95684.59;;;7.12;90.58
34185;BME280;20454;48.100;11.776;2023-04-08T11:38:43;95689.47;;;7.20;90.30
34185;BME280;20454;48.100;11.776;2023-04-08T11:41:09;95677.22;;;7.26;90.94
34185;BME280;20454;48.100;11.776;2023-04-08T11:43:36;95685.69;;;7.34;90.84
34185;BME280;20454;48.100;11.776;2023-04-08T11:46:11;95688.06;;;7.41;90.01
34185;BME280;20454;48.100;11.776;2023-04-08T11:48:37;95698.47;;;7.49;88.69
34185;BME280;20454;48.100;11.776;2023-04-08T11:51:07;95683.66;;;7.40;88.73
34185;BME280;20454;48.100;11.776;2023-04-08T11:53:34;95678.56;;;7.28;86.38
34185;BME280;20454;48.100;11.776;2023-04-08T11:58:42;95690.88;;;7.17;86.49
34185;BME280;20454;48.100;11.776;2023-04-08T12:01:08;95690.72;;;7.09;87.40
34185;BME280;20454;48.100;11.776;2023-04-08T12:03:34;95689.66;;;7.05;88.25
34185;BME280;20454;48.100;11.776;2023-04-08T12:05:59;95705.09;;;7.11;88.16
34185;BME280;20454;48.100;11.776;2023-04-08T12:08:25;95710.91;;;7.09;88.38
34185;BME280;20454;48.100;11.776;2023-04-08T12:10:51;95703.13;;;7.11;88.40
34185;BME280;20454;48.100;11.776;2023-04-08T12:13:17;95710.84;;;7.14;87.59
34185;BME280;20454;48.100;11.776;2023-04-08T12:15:43;95705.88;;;7.11;87.27
34185;BME280;20454;48.100;11.776;2023-04-08T12:18:09;95703.44;;;7.10;87.88
34185;BME280;20454;48.100;11.776;2023-04-08T12:20:35;95705.88;;;7.11;87.42
34185;BME280;20454;48.100;11.776;2023-04-08T12:23:00;95710.63;;;7.11;87.30
34185;BME280;20454;48.100;11.776;2023-04-08T12:25:26;95707.00;;;7.10;87.47
34185;BME280;20454;48.100;11.776;2023-04-08T12:27:52;95705.97;;;7.06;87.79
34185;BME280;20454;48.100;11.776;2023-04-08T12:30:17;95706.25;;;7.05;87.51
34185;BME280;20454;48.100;11.776;2023-04-08T12:32:43;95719.81;;;7.06;87.93
34185;BME280;20454;48.100;11.776;2023-04-08T12:35:10;95716.19;;;7.06;87.98
34185;BME280;20454;48.100;11.776;2023-04-08T12:37:36;95712.97;;;6.99;88.01
34185;BME280;20454;48.100;11.776;2023-04-08T12:40:01;95720.00;;;6.91;87.69
34185;BME280;20454;48.100;11.776;2023-04-08T12:42:27;95721.97;;;6.86;87.94
34185;BME280;20454;48.100;11.776;2023-04-08T12:44:53;95719.00;;;6.77;88.47
34185;BME280;20454;48.100;11.776;2023-04-08T12:47:19;95730.94;;;6.73;88.89
34185;BME280;20454;48.100;11.776;2023-04-08T12:49:44;95715.28;;;6.63;88.69
34185;BME280;20454;48.100;11.776;2023-04-08T12:52:10;95726.66;;;6.62;89.51
34185;BME280;20454;48.100;11.776;2023-04-08T12:54:36;95715.66;;;6.57;90.02
34185;BME280;20454;48.100;11.776;2023-04-08T12:57:01;95726.75;;;6.52;89.19
34185;BME280;20454;48.100;11.776;2023-04-08T12:59:27;95718.28;;;6.43;89.40
34185;BME280;20454;48.100;11.776;2023-04-08T13:01:53;95726.56;;;6.43;89.85
34185;BME280;20454;48.100;11.776;2023-04-08T13:04:18;95736.25;;;6.41;90.91
34185;BME280;20454;48.100;11.776;2023-04-08T13:06:44;95730.50;;;6.37;91.00
34185;BME280;20454;48.100;11.776;2023-04-08T13:09:10;95730.25;;;6.34;91.22
34185;BME280;20454;48.100;11.776;2023-04-08T13:11:36;95739.94;;;6.31;91.17
34185;BME280;20454;48.100;11.776;2023-04-08T13:14:02;95733.06;;;6.29;92.27
34185;BME280;20454;48.100;11.776;2023-04-08T13:16:28;95732.81;;;6.25;92.50
34185;BME280;20454;48.100;11.776;2023-04-08T13:18:53;95729.56;;;6.18;93.30
34185;BME280;20454;48.100;11.776;2023-04-08T13:21:20;95730.41;;;6.19;93.87
34185;BME280;20454;48.100;11.776;2023-04-08T13:23:45;95736.19;;;6.17;94.06
34185;BME280;20454;48.100;11.776;2023-04-08T13:26:11;95734.59;;;6.11;94.34
34185;BME280;20454;48.100;11.776;2023-04-08T13:28:37;95739.28;;;6.11;94.66
34185;BME280;20454;48.100;11.776;2023-04-08T13:31:03;95734.38;;;6.03;95.62
34185;BME280;20454;48.100;11.776;2023-04-08T13:33:28;95741.00;;;6.02;95.98
34185;BME280;20454;48.100;11.776;2023-04-08T13:35:54;95746.81;;;6.00;97.17
34185;BME280;20454;48.100;11.776;2023-04-08T13:38:20;95736.09;;;5.94;97.78
34185;BME280;20454;48.100;11.776;2023-04-08T13:40:45;95747.16;;;5.94;98.11
34185;BME280;20454;48.100;11.776;2023-04-08T13:43:12;95750.19;;;5.92;98.01
34185;BME280;20454;48.100;11.776;2023-04-08T13:45:38;95739.75;;;5.89;99.31
34185;BME280;20454;48.100;11.776;2023-04-08T13:48:05;95743.88;;;5.87;99.49
34185;BME280;20454;48.100;11.776;2023-04-08T13:50:30;95754.09;;;5.86;100.00
34185;BME280;20454;48.100;11.776;2023-04-08T13:52:56;95745.00;;;5.86;100.00
34185;BME280;20454;48.100;11.776;2023-04-08T13:55:22;95753.81;;;5.88;100.00
34185;BME280;20454;48.100;11.776;2023-04-08T13:57:47;95754.06;;;5.91;100.00
34185;BME280;20454;48.100;11.776;2023-04-08T14:00:13;95759.06;;;5.89;100.00
34185;BME280;20454;48.100;11.776;2023-04-08T14:02:39;95753.47;;;5.94;100.00
34185;BME280;20454;48.100;11.776;2023-04-08T14:05:05;95756.72;;;6.06;100.00
34185;BME280;20454;48.100;11.776;2023-04-08T14:07:31;95756.09;;;6.14;100.00
34185;BME280;20454;48.100;11.776;2023-04-08T14:09:57;95761.78;;;6.28;100.00
34185;BME280;20454;48.100;11.776;2023-04-08T14:12:22;95749.59;;;6.34;99.54
34185;BME280;20454;48.100;11.776;2023-04-08T14:14:48;95758.06;;;6.42;98.62
34185;BME280;20454;48.100;11.776;2023-04-08T14:17:14;95757.22;;;6.47;97.88
34185;BME280;20454;48.100;11.776;2023-04-08T14:19:39;95765.75;;;6.50;97.11
34185;BME280;20454;48.100;11.776;2023-04-08T14:22:06;95766.28;;;6.52;97.87
34185;BME280;20454;48.100;11.776;2023-04-08T14:24:32;95764.91;;;6.50;97.98
34185;BME280;20454;48.100;11.776;2023-04-08T14:26:58;95767.41;;;6.51;98.51
34185;BME280;20454;48.100;11.776;2023-04-08T14:29:24;95759.66;;;6.48;98.56
34185;BME280;20454;48.100;11.776;2023-04-08T15:23:39;95798.97;;;6.07;98.24
34185;BME280;20454;48.100;11.776;2023-04-08T15:26:10;95797.31;;;6.06;98.37
34185;BME280;20454;48.100;11.776;2023-04-08T15:28:36;95801.22;;;6.05;98.67
34185;BME280;20454;48.100;11.776;2023-04-08T15:31:03;95807.00;;;6.03;99.32
34185;BME280;20454;48.100;11.776;2023-04-08T15:33:30;95809.50;;;6.00;99.48
34185;BME280;20454;48.100;11.776;2023-04-08T15:35:55;95810.88;;;6.02;99.28
34185;BME280;20454;48.100;11.776;2023-04-08T15:38:24;95807.28;;;6.02;99.06
34185;BME280;20454;48.100;11.776;2023-04-08T15:40:51;95803.75;;;5.96;98.67
34185;BME280;20454;48.100;11.776;2023-04-08T15:43:17;95811.75;;;5.98;98.36
34185;BME280;20454;48.100;11.776;2023-04-08T15:45:43;95811.47;;;5.94;98.30
34185;BME280;20454;48.100;11.776;2023-04-08T15:48:09;95802.66;;;5.92;99.05
34185;BME280;20454;48.100;11.776;2023-04-08T15:50:37;95808.75;;;5.89;98.70
34185;BME280;20454;48.100;11.776;2023-04-08T15:53:03;95809.56;;;5.90;98.61
34185;BME280;20454;48.100;11.776;2023-04-08T15:55:29;95808.19;;;5.87;98.92
34185;BME280;20454;48.100;11.776;2023-04-08T15:57:54;95805.75;;;5.86;99.26
34185;BME280;20454;48.100;11.776;2023-04-08T16:00:22;95804.09;;;5.85;99.78
34185;BME280;20454;48.100;11.776;2023-04-08T16:02:48;95814.03;;;5.86;99.36
34185;BME280;20454;48.100;11.776;2023-04-08T16:05:14;95803.25;;;5.84;99.99
34185;BME280;20454;48.100;11.776;2023-04-08T16:07:40;95816.19;;;5.89;100.00
34185;BME280;20454;48.100;11.776;2023-04-08T16:10:06;95819.50;;;5.91;100.00
34185;BME280;20454;48.100;11.776;2023-04-08T16:12:32;95815.38;;;5.88;100.00
34185;BME280;20454;48.100;11.776;2023-04-08T16:14:59;95818.44;;;5.87;100.00
34185;BME280;20454;48.100;11.776;2023-04-08T16:17:24;95825.88;;;5.86;100.00
34185;BME280;20454;48.100;11.776;2023-04-08T16:19:51;95829.75;;;5.85;100.00
34185;BME280;20454;48.100;11.776;2023-04-08T16:22:17;95827.56;;;5.82;100.00
34185;BME280;20454;48.100;11.776;2023-04-08T16:24:43;95826.44;;;5.83;100.00
34185;BME280;20454;48.100;11.776;2023-04-08T16:27:09;95825.09;;;5.81;100.00
34185;BME280;20454;48.100;11.776;2023-04-08T16:29:35;95826.72;;;5.82;100.00
34185;BME280;20454;48.100;11.776;2023-04-08T16:32:00;95832.78;;;5.84;100.00
34185;BME280;20454;48.100;11.776;2023-04-08T16:34:26;95828.69;;;5.81;100.00
34185;BME280;20454;48.100;11.776;2023-04-08T16:36:53;95836.38;;;5.84;100.00
34185;BME280;20454;48.100;11.776;2023-04-08T16:39:18;95839.97;;;5.85;100.00
34185;BME280;20454;48.100;11.776;2023-04-08T16:41:44;95841.63;;;5.86;100.00
34185;BME280;20454;48.100;11.776;2023-04-08T16:44:10;95840.50;;;5.87;100.00
34185;BME280;20454;48.100;11.776;2023-04-08T16:46:35;95841.91;;;5.84;100.00
34185;BME280;20454;48.100;11.776;2023-04-08T16:49:01;95842.44;;;5.86;100.00
34185;BME280;20454;48.100;11.776;2023-04-08T16:51:27;95851.28;;;5.88;100.00
34185;BME280;20454;48.100;11.776;2023-04-08T19:31:57;95983.28;;;5.56;100.00
34185;BME280;20454;48.100;11.776;2023-04-08T19:34:27;95983.84;;;5.58;100.00
34185;BME280;20454;48.100;11.776;2023-04-08T19:36:53;95994.88;;;5.58;100.00
34185;BME280;20454;48.100;11.776;2023-04-08T19:39:19;95992.09;;;5.58;100.00
34185;BME280;20454;48.100;11.776;2023-04-08T19:41:45;95992.41;;;5.57;100.00
34185;BME280;20454;48.100;11.776;2023-04-08T19:44:10;95985.25;;;5.51;100.00
34185;BME280;20454;48.100;11.776;2023-04-08T19:46:36;95992.94;;;5.54;100.00
34185;BME280;20454;48.100;11.776;2023-04-08T19:49:02;95988.53;;;5.53;100.00
34185;BME280;20454;48.100;11.776;2023-04-08T19:51:28;96001.50;;;5.57;100.00
34185;BME280;20454;48.100;11.776;2023-04-08T19:53:55;95989.91;;;5.55;100.00
34185;BME280;20454;48.100;11.776;2023-04-08T19:56:21;95993.22;;;5.52;100.00
34185;BME280;20454;48.100;11.776;2023-04-08T19:58:47;95990.47;;;5.52;100.00
34185;BME280;20454;48.100;11.776;2023-04-08T20:01:13;95992.41;;;5.47;100.00
34185;BME280;20454;48.100;11.776;2023-04-08T20:03:39;95989.38;;;5.48;100.00
34185;BME280;20454;48.100;11.776;2023-04-08T20:06:07;95992.41;;;5.47;100.00
34185;BME280;20454;48.100;11.776;2023-04-08T20:08:33;95993.53;;;5.46;100.00
34185;BME280;20454;48.100;11.776;2023-04-08T20:11:00;95996.28;;;5.46;100.00
34185;BME280;20454;48.100;11.776;2023-04-08T20:13:26;96000.69;;;5.42;100.00
34185;BME280;20454;48.100;11.776;2023-04-08T20:15:52;95994.91;;;5.43;100.00
34185;BME280;20454;48.100;11.776;2023-04-08T20:18:18;95998.22;;;5.40;100.00
34185;BME280;20454;48.100;11.776;2023-04-08T20:20:43;95997.66;;;5.38;100.00
34185;BME280;20454;48.100;11.776;2023-04-08T20:23:11;96001.53;;;5.37;100.00
34185;BME280;20454;48.100;11.776;2023-04-08T20:25:38;96003.19;;;5.38;100.00
34185;BME280;20454;48.100;11.776;2023-04-08T20:28:03;95999.88;;;5.36;100.00
34185;BME280;20454;48.100;11.776;2023-04-08T20:30:29;95994.09;;;5.33;100.00
34185;BME280;20454;48.100;11.776;2023-04-08T20:32:55;95996.56;;;5.34;100.00
34185;BME280;20454;48.100;11.776;2023-04-08T20:35:20;96001.25;;;5.34;100.00
34185;BME280;20454;48.100;11.776;2023-04-08T20:37:47;95986.38;;;5.25;100.00
34185;BME280;20454;48.100;11.776;2023-04-08T20:40:12;95997.69;;;5.28;100.00
34185;BME280;20454;48.100;11.776;2023-04-08T20:42:38;95996.03;;;5.27;100.00
34185;BME280;20454;48.100;11.776;2023-04-08T20:45:05;95999.59;;;5.28;100.00
34185;BME280;20454;48.100;11.776;2023-04-08T20:47:30;95997.13;;;5.26;100.00
34185;BME280;20454;48.100;11.776;2023-04-08T20:49:57;95994.66;;;5.25;100.00
34185;BME280;20454;48.100;11.776;2023-04-08T20:52:24;96004.56;;;5.26;100.00
34185;BME280;20454;48.100;11.776;2023-04-08T20:54:50;95997.13;;;5.26;100.00
34185;BME280;20454;48.100;11.776;2023-04-08T20:57:15;96007.34;;;5.26;100.00
34185;BME280;20454;48.100;11.776;2023-04-08T20:59:41;96008.72;;;5.23;100.00
34185;BME280;20454;48.100;11.776;2023-04-08T21:02:07;96012.31;;;5.24;100.00
34185;BME280;20454;48.100;11.776;2023-04-08T21:04:34;96014.22;;;5.23;100.00
34185;BME280;20454;48.100;11.776;2023-04-08T21:07:00;96012.56;;;5.22;100.00
34185;BME280;20454;48.100;11.776;2023-04-08T21:09:26;96014.22;;;5.23;100.00
34185;BME280;20454;48.100;11.776;2023-04-08T21:11:51;96012.56;;;5.22;100.00
34185;BME280;20454;48.100;11.776;2023-04-08T21:14:17;96007.63;;;5.19;100.00
34185;BME280;20454;48.100;11.776;2023-04-08T21:16:43;96007.31;;;5.21;100.00
34185;BME280;20454;48.100;11.776;2023-04-08T21:19:08;96015.34;;;5.22;100.00
34185;BME280;20454;48.100;11.776;2023-04-08T21:21:34;96014.78;;;5.20;100.00
34185;BME280;20454;48.100;11.776;2023-04-08T21:24:00;96022.22;;;5.20;100.00
34185;BME280;20454;48.100;11.776;2023-04-08T21:26:26;96018.91;;;5.18;100.00
34185;BME280;20454;48.100;11.776;2023-04-08T21:28:52;96013.97;;;5.15;100.00
34185;BME280;20454;48.100;11.776;2023-04-08T21:31:17;96012.84;;;5.11;100.00
34185;BME280;20454;48.100;11.776;2023-04-08T21:33:43;96022.50;;;5.13;100.00
34185;BME280;20454;48.100;11.776;2023-04-08T21:36:09;96016.16;;;5.13;100.00
34185;BME280;20454;48.100;11.776;2023-04-08T21:38:35;96011.47;;;5.08;100.00
34185;BME280;20454;48.100;11.776;2023-04-08T21:41:00;96019.22;;;5.11;100.00
34185;BME280;20454;48.100;11.776;2023-04-08T21:43:26;96020.59;;;5.09;100.00
34185;BME280;20454;48.100;11.776;2023-04-08T21:45:52;96015.88;;;5.09;100.00
34185;BME280;20454;48.100;11.776;2023-04-08T21:48:18;96013.69;;;5.06;100.00
34185;BME280;20454;48.100;11.776;2023-04-08T21:50:44;96015.31;;;5.02;100.00
34185;BME280;20454;48.100;11.776;2023-04-08T21:53:10;96012.56;;;4.97;100.00
34185;BME280;20454;48.100;11.776;2023-04-08T21:55:36;96023.31;;;4.99;100.00
34185;BME280;20454;48.100;11.776;2023-04-08T21:58:01;96015.88;;;4.94;100.00
34185;BME280;20454;48.100;11.776;2023-04-08T22:00:27;96014.50;;;4.92;100.00
34185;BME280;20454;48.100;11.776;2023-04-08T22:02:53;96020.56;;;4.89;100.00
34185;BME280;20454;48.100;11.776;2023-04-08T22:05:18;96009.78;;;4.82;100.00
34185;BME280;20454;48.100;11.776;2023-04-08T22:07:44;96012.56;;;4.77;100.00
34185;BME280;20454;48.100;11.776;2023-04-08T22:10:10;96016.41;;;4.71;100.00
34185;BME280;20454;48.100;11.776;2023-04-08T22:12:36;96014.19;;;4.68;100.00
34185;BME280;20454;48.100;11.776;2023-04-08T22:15:01;96012.50;;;4.62;100.00
34185;BME280;20454;48.100;11.776;2023-04-08T22:17:27;96010.59;;;4.63;100.00
34185;BME280;20454;48.100;11.776;2023-04-08T22:19:53;96023.84;;;4.61;100.00
34185;BME280;20454;48.100;11.776;2023-04-08T22:22:18;96017.47;;;4.55;100.00
34185;BME280;20454;48.100;11.776;2023-04-08T22:24:44;96013.88;;;4.50;100.00
34185;BME280;20454;48.100;11.776;2023-04-08T22:27:10;96009.44;;;4.44;100.00
34185;BME280;20454;48.100;11.776;2023-04-08T22:29:36;96013.03;;;4.40;100.00
34185;BME280;20454;48.100;11.776;2023-04-08T22:32:01;96015.50;;;4.36;100.00
34185;BME280;20454;48.100;11.776;2023-04-08T22:34:27;96020.72;;;4.33;100.00
34185;BME280;20454;48.100;11.776;2023-04-08T22:36:52;96014.09;;;4.29;100.00
34185;BME280;20454;48.100;11.776;2023-04-08T22:39:18;96016.25;;;4.22;100.00
34185;BME280;20454;48.100;11.776;2023-04-08T22:41:44;96025.91;;;4.19;100.00
34185;BME280;20454;48.100;11.776;2023-04-08T22:44:11;96023.13;;;4.14;100.00
34185;BME280;20454;48.100;11.776;2023-04-08T22:46:36;96024.19;;;4.08;100.00
34185;BME280;20454;48.100;11.776;2023-04-08T22:49:02;96035.47;;;4.02;100.00
34185;BME280;20454;48.100;11.776;2023-04-08T22:51:27;96030.75;;;3.97;100.00
34185;BME280;20454;48.100;11.776;2023-04-08T22:53:53;96035.16;;;3.93;100.00
34185;BME280;20454;48.100;11.776;2023-04-08T22:56:19;96030.47;;;3.94;100.00
34185;BME280;20454;48.100;11.776;2023-04-08T22:58:45;96028.25;;;3.91;100.00
34185;BME280;20454;48.100;11.776;2023-04-08T23:01:15;96030.16;;;3.85;100.00
34185;BME280;20454;48.100;11.776;2023-04-08T23:03:42;96037.56;;;3.85;100.00
34185;BME280;20454;48.100;11.776;2023-04-08T23:06:08;96030.13;;;3.80;100.00
34185;BME280;20454;48.100;11.776;2023-04-08T23:08:33;96029.56;;;3.78;100.00
34185;BME280;20454;48.100;11.776;2023-04-08T23:10:59;96043.59;;;3.77;100.00
34185;BME280;20454;48.100;11.776;2023-04-08T23:13:26;96030.09;;;3.75;100.00
34185;BME280;20454;48.100;11.776;2023-04-08T23:15:52;96023.19;;;3.73;100.00
34185;BME280;20454;48.100;11.776;2023-04-08T23:18:17;96036.13;;;3.72;100.00
34185;BME280;20454;48.100;11.776;2023-04-08T23:21:10;96044.41;;;3.72;100.00
34185;BME280;20454;48.100;11.776;2023-04-08T23:23:35;96030.09;;;3.70;100.00
34185;BME280;20454;48.100;11.776;2023-04-08T23:26:01;96030.63;;;3.72;100.00